sensor_id;sensor_type;location;lat;lon;timestamp;P1;durP1;ratioP1;P2;durP2;ratioP2
78995;SDS011;68401;47.192;-1.552;2023-07-31T00:01:55;10.32;;;5.20;;
78995;SDS011;68401;47.192;-1.552;2023-07-31T00:04:20;12.13;;;5.93;;
78995;SDS011;68401;47.192;-1.552;2023-07-31T00:06:46;9.00;;;4.07;;
78995;SDS011;68401;47.192;-1.552;2023-07-31T00:09:11;8.45;;;4.38;;
78995;SDS011;68401;47.192;-1.552;2023-07-31T00:11:36;10.57;;;5.18;;
78995;SDS011;68401;47.192;-1.552;2023-07-31T00:14:02;11.88;;;4.20;;
78995;SDS011;68401;47.192;-1.552;2023-07-31T00:16:27;10.13;;;4.20;;
78995;SDS011;68401;47.192;-1.552;2023-07-31T00:18:53;17.52;;;4.65;;
78995;SDS011;68401;47.192;-1.552;2023-07-31T00:21:18;11.07;;;4.80;;
78995;SDS011;68401;47.192;-1.552;2023-07-31T00:23:44;7.55;;;4.82;;
78995;SDS011;68401;47.192;-1.552;2023-07-31T00:26:09;10.45;;;4.10;;
78995;SDS011;68401;47.192;-1.552;2023-07-31T00:28:35;12.85;;;4.35;;
78995;SDS011;68401;47.192;-1.552;2023-07-31T00:31:00;9.63;;;4.13;;
78995;SDS011;68401;47.192;-1.552;2023-07-31T00:33:27;10.05;;;4.05;;
78995;SDS011;68401;47.192;-1.552;2023-07-31T00:35:52;12.63;;;4.82;;
78995;SDS011;68401;47.192;-1.552;2023-07-31T00:38:18;11.07;;;3.65;;
78995;SDS011;68401;47.192;-1.552;2023-07-31T00:40:43;11.45;;;4.80;;
78995;SDS011;68401;47.192;-1.552;2023-07-31T00:43:09;10.63;;;4.90;;
78995;SDS011;68401;47.192;-1.552;2023-07-31T00:45:34;10.60;;;4.45;;
78995;SDS011;68401;47.192;-1.552;2023-07-31T00:48:00;13.95;;;4.30;;
78995;SDS011;68401;47.192;-1.552;2023-07-31T00:50:26;10.23;;;4.22;;
78995;SDS011;68401;47.192;-1.552;2023-07-31T00:52:52;8.50;;;4.65;;
78995;SDS011;68401;47.192;-1.552;2023-07-31T00:55:17;11.25;;;4.40;;
78995;SDS011;68401;47.192;-1.552;2023-07-31T00:57:43;9.43;;;3.55;;
78995;SDS011;68401;47.192;-1.552;2023-07-31T01:00:10;13.57;;;4.32;;
78995;SDS011;68401;47.192;-1.552;2023-07-31T01:02:37;13.07;;;4.30;;
78995;SDS011;68401;47.192;-1.552;2023-07-31T01:05:03;11.90;;;4.40;;
78995;SDS011;68401;47.192;-1.552;2023-07-31T01:10:21;11.98;;;4.18;;
78995;SDS011;68401;47.192;-1.552;2023-07-31T01:12:50;15.05;;;4.43;;
78995;SDS011;68401;47.192;-1.552;2023-07-31T01:15:16;13.45;;;5.47;;
78995;SDS011;68401;47.192;-1.552;2023-07-31T01:17:42;9.18;;;4.72;;
78995;SDS011;68401;47.192;-1.552;2023-07-31T01:20:18;11.05;;;4.65;;
78995;SDS011;68401;47.192;-1.552;2023-07-31T01:23:05;13.32;;;5.05;;
78995;SDS011;68401;47.192;-1.552;2023-07-31T01:31:03;10.90;;;4.10;;
78995;SDS011;68401;47.192;-1.552;2023-07-31T01:33:32;11.98;;;4.63;;
78995;SDS011;68401;47.192;-1.552;2023-07-31T01:35:58;18.40;;;5.40;;
78995;SDS011;68401;47.192;-1.552;2023-07-31T01:38:24;10.10;;;5.00;;
78995;SDS011;68401;47.192;-1.552;2023-07-31T01:40:53;14.15;;;4.93;;
78995;SDS011;68401;47.192;-1.552;2023-07-31T01:43:19;12.13;;;4.65;;
78995;SDS011;68401;47.192;-1.552;2023-07-31T01:45:44;11.85;;;4.95;;
78995;SDS011;68401;47.192;-1.552;2023-07-31T01:48:10;12.05;;;4.75;;
78995;SDS011;68401;47.192;-1.552;2023-07-31T01:50:35;12.57;;;5.07;;
78995;SDS011;68401;47.192;-1.552;2023-07-31T01:53:01;9.43;;;5.13;;
78995;SDS011;68401;47.192;-1.552;2023-07-31T01:55:26;9.07;;;4.93;;
78995;SDS011;68401;47.192;-1.552;2023-07-31T01:57:51;15.40;;;4.50;;
78995;SDS011;68401;47.192;-1.552;2023-07-31T02:00:18;12.55;;;4.53;;
78995;SDS011;68401;47.192;-1.552;2023-07-31T02:02:43;11.02;;;4.57;;
78995;SDS011;68401;47.192;-1.552;2023-07-31T02:05:09;9.15;;;4.30;;
78995;SDS011;68401;47.192;-1.552;2023-07-31T02:07:34;11.23;;;4.45;;
78995;SDS011;68401;47.192;-1.552;2023-07-31T02:10:00;11.65;;;4.82;;
78995;SDS011;68401;47.192;-1.552;2023-07-31T02:12:25;16.75;;;5.25;;
78995;SDS011;68401;47.192;-1.552;2023-07-31T02:14:51;12.13;;;4.40;;
78995;SDS011;68401;47.192;-1.552;2023-07-31T02:17:16;13.48;;;5.22;;
78995;SDS011;68401;47.192;-1.552;2023-07-31T02:19:42;10.15;;;4.70;;
78995;SDS011;68401;47.192;-1.552;2023-07-31T02:22:07;9.68;;;4.78;;
78995;SDS011;68401;47.192;-1.552;2023-07-31T02:24:33;11.90;;;5.15;;
78995;SDS011;68401;47.192;-1.552;2023-07-31T02:26:58;11.57;;;5.53;;
78995;SDS011;68401;47.192;-1.552;2023-07-31T02:29:24;14.73;;;5.50;;
78995;SDS011;68401;47.192;-1.552;2023-07-31T02:31:49;9.07;;;5.47;;
78995;SDS011;68401;47.192;-1.552;2023-07-31T02:34:14;13.88;;;5.45;;
78995;SDS011;68401;47.192;-1.552;2023-07-31T02:36:40;12.45;;;4.72;;
78995;SDS011;68401;47.192;-1.552;2023-07-31T02:39:05;10.00;;;4.53;;
78995;SDS011;68401;47.192;-1.552;2023-07-31T02:41:31;13.27;;;5.05;;
78995;SDS011;68401;47.192;-1.552;2023-07-31T02:43:56;9.80;;;5.35;;
78995;SDS011;68401;47.192;-1.552;2023-07-31T02:46:22;14.32;;;5.43;;
78995;SDS011;68401;47.192;-1.552;2023-07-31T02:51:16;15.00;;;5.22;;
78995;SDS011;68401;47.192;-1.552;2023-07-31T02:53:41;10.77;;;4.70;;
78995;SDS011;68401;47.192;-1.552;2023-07-31T02:56:07;10.27;;;4.30;;
78995;SDS011;68401;47.192;-1.552;2023-07-31T02:58:32;10.07;;;4.30;;
78995;SDS011;68401;47.192;-1.552;2023-07-31T03:00:58;14.38;;;5.35;;
78995;SDS011;68401;47.192;-1.552;2023-07-31T03:03:24;11.05;;;4.90;;
78995;SDS011;68401;47.192;-1.552;2023-07-31T03:05:49;13.90;;;5.63;;
78995;SDS011;68401;47.192;-1.552;2023-07-31T03:08:15;10.40;;;5.35;;
78995;SDS011;68401;47.192;-1.552;2023-07-31T03:10:40;9.23;;;4.55;;
78995;SDS011;68401;47.192;-1.552;2023-07-31T03:13:06;12.68;;;4.80;;
78995;SDS011;68401;47.192;-1.552;2023-07-31T03:15:32;11.38;;;4.70;;
78995;SDS011;68401;47.192;-1.552;2023-07-31T03:17:57;14.07;;;5.80;;
78995;SDS011;68401;47.192;-1.552;2023-07-31T03:20:23;10.85;;;4.85;;
78995;SDS011;68401;47.192;-1.552;2023-07-31T03:22:48;14.85;;;5.85;;
78995;SDS011;68401;47.192;-1.552;2023-07-31T03:25:14;12.10;;;5.75;;
78995;SDS011;68401;47.192;-1.552;2023-07-31T03:27:39;11.10;;;6.00;;
78995;SDS011;68401;47.192;-1.552;2023-07-31T03:30:05;9.95;;;4.32;;
78995;SDS011;68401;47.192;-1.552;2023-07-31T03:32:33;12.95;;;5.72;;
78995;SDS011;68401;47.192;-1.552;2023-07-31T03:34:58;13.45;;;6.03;;
78995;SDS011;68401;47.192;-1.552;2023-07-31T03:37:24;15.13;;;5.32;;
78995;SDS011;68401;47.192;-1.552;2023-07-31T03:39:49;11.85;;;4.93;;
78995;SDS011;68401;47.192;-1.552;2023-07-31T03:42:14;12.80;;;4.95;;
78995;SDS011;68401;47.192;-1.552;2023-07-31T03:44:40;14.45;;;5.07;;
78995;SDS011;68401;47.192;-1.552;2023-07-31T03:47:05;9.85;;;4.90;;
78995;SDS011;68401;47.192;-1.552;2023-07-31T03:49:31;11.00;;;5.57;;
78995;SDS011;68401;47.192;-1.552;2023-07-31T03:51:56;13.90;;;6.35;;
78995;SDS011;68401;47.192;-1.552;2023-07-31T03:54:22;11.73;;;5.40;;
78995;SDS011;68401;47.192;-1.552;2023-07-31T03:56:47;12.65;;;5.00;;
78995;SDS011;68401;47.192;-1.552;2023-07-31T03:59:13;13.27;;;5.25;;
78995;SDS011;68401;47.192;-1.552;2023-07-31T04:01:38;15.82;;;5.47;;
78995;SDS011;68401;47.192;-1.552;2023-07-31T04:04:04;13.40;;;5.30;;
78995;SDS011;68401;47.192;-1.552;2023-07-31T04:06:30;11.25;;;5.28;;
78995;SDS011;68401;47.192;-1.552;2023-07-31T04:08:55;12.77;;;4.72;;
78995;SDS011;68401;47.192;-1.552;2023-07-31T04:11:21;10.20;;;5.07;;
78995;SDS011;68401;47.192;-1.552;2023-07-31T04:13:46;11.00;;;5.18;;
78995;SDS011;68401;47.192;-1.552;2023-07-31T04:16:12;16.23;;;5.30;;
78995;SDS011;68401;47.192;-1.552;2023-07-31T04:18:37;12.45;;;5.35;;
78995;SDS011;68401;47.192;-1.552;2023-07-31T04:21:03;9.18;;;4.63;;
78995;SDS011;68401;47.192;-1.552;2023-07-31T04:23:29;11.23;;;5.63;;
78995;SDS011;68401;47.192;-1.552;2023-07-31T04:25:54;11.63;;;5.18;;
78995;SDS011;68401;47.192;-1.552;2023-07-31T04:28:20;16.92;;;5.82;;
78995;SDS011;68401;47.192;-1.552;2023-07-31T04:30:45;10.68;;;4.63;;
78995;SDS011;68401;47.192;-1.552;2023-07-31T04:33:10;13.55;;;5.60;;
78995;SDS011;68401;47.192;-1.552;2023-07-31T04:35:36;10.88;;;5.45;;
78995;SDS011;68401;47.192;-1.552;2023-07-31T04:38:01;12.50;;;5.28;;
78995;SDS011;68401;47.192;-1.552;2023-07-31T04:40:27;11.85;;;6.05;;
78995;SDS011;68401;47.192;-1.552;2023-07-31T04:42:52;17.50;;;6.15;;
78995;SDS011;68401;47.192;-1.552;2023-07-31T04:45:18;14.48;;;5.53;;
78995;SDS011;68401;47.192;-1.552;2023-07-31T04:47:43;17.15;;;5.30;;
78995;SDS011;68401;47.192;-1.552;2023-07-31T04:50:09;22.55;;;6.40;;
78995;SDS011;68401;47.192;-1.552;2023-07-31T04:52:34;14.85;;;6.32;;
78995;SDS011;68401;47.192;-1.552;2023-07-31T04:55:00;11.63;;;4.57;;
78995;SDS011;68401;47.192;-1.552;2023-07-31T04:57:26;13.40;;;6.28;;
78995;SDS011;68401;47.192;-1.552;2023-07-31T04:59:51;9.15;;;5.22;;
78995;SDS011;68401;47.192;-1.552;2023-07-31T05:02:17;11.55;;;5.50;;
78995;SDS011;68401;47.192;-1.552;2023-07-31T05:04:42;17.67;;;5.18;;
78995;SDS011;68401;47.192;-1.552;2023-07-31T05:07:08;12.30;;;5.28;;
78995;SDS011;68401;47.192;-1.552;2023-07-31T05:09:33;11.80;;;5.15;;
78995;SDS011;68401;47.192;-1.552;2023-07-31T05:11:58;12.75;;;4.97;;
78995;SDS011;68401;47.192;-1.552;2023-07-31T05:14:25;13.85;;;5.10;;
78995;SDS011;68401;47.192;-1.552;2023-07-31T05:16:51;15.10;;;5.10;;
78995;SDS011;68401;47.192;-1.552;2023-07-31T05:19:16;11.07;;;4.68;;
78995;SDS011;68401;47.192;-1.552;2023-07-31T05:21:42;10.25;;;5.10;;
78995;SDS011;68401;47.192;-1.552;2023-07-31T05:24:07;14.90;;;5.20;;
78995;SDS011;68401;47.192;-1.552;2023-07-31T05:26:33;13.70;;;5.10;;
78995;SDS011;68401;47.192;-1.552;2023-07-31T05:28:58;15.95;;;5.00;;
78995;SDS011;68401;47.192;-1.552;2023-07-31T05:31:24;16.13;;;5.72;;
78995;SDS011;68401;47.192;-1.552;2023-07-31T05:33:49;11.02;;;5.72;;
78995;SDS011;68401;47.192;-1.552;2023-07-31T05:36:15;13.77;;;5.50;;
78995;SDS011;68401;47.192;-1.552;2023-07-31T05:38:41;8.02;;;4.35;;
78995;SDS011;68401;47.192;-1.552;2023-07-31T05:41:09;11.63;;;4.22;;
78995;SDS011;68401;47.192;-1.552;2023-07-31T05:43:34;9.90;;;4.75;;
78995;SDS011;68401;47.192;-1.552;2023-07-31T05:46:00;10.77;;;4.65;;
78995;SDS011;68401;47.192;-1.552;2023-07-31T05:48:26;13.13;;;4.70;;
78995;SDS011;68401;47.192;-1.552;2023-07-31T05:50:52;12.23;;;4.95;;
78995;SDS011;68401;47.192;-1.552;2023-07-31T05:53:17;7.70;;;4.82;;
78995;SDS011;68401;47.192;-1.552;2023-07-31T05:55:42;10.20;;;4.63;;
78995;SDS011;68401;47.192;-1.552;2023-07-31T05:58:08;7.72;;;4.47;;
78995;SDS011;68401;47.192;-1.552;2023-07-31T06:00:33;10.85;;;5.13;;
78995;SDS011;68401;47.192;-1.552;2023-07-31T06:02:59;10.52;;;4.60;;
78995;SDS011;68401;47.192;-1.552;2023-07-31T06:05:24;11.38;;;4.80;;
78995;SDS011;68401;47.192;-1.552;2023-07-31T06:07:51;11.95;;;4.45;;
78995;SDS011;68401;47.192;-1.552;2023-07-31T06:10:16;14.35;;;5.90;;
78995;SDS011;68401;47.192;-1.552;2023-07-31T06:12:42;11.48;;;4.22;;
78995;SDS011;68401;47.192;-1.552;2023-07-31T06:15:07;8.77;;;4.55;;
78995;SDS011;68401;47.192;-1.552;2023-07-31T06:17:33;13.63;;;4.70;;
78995;SDS011;68401;47.192;-1.552;2023-07-31T06:19:58;12.02;;;4.78;;
78995;SDS011;68401;47.192;-1.552;2023-07-31T06:22:24;11.30;;;4.22;;
78995;SDS011;68401;47.192;-1.552;2023-07-31T06:24:49;8.75;;;5.18;;
78995;SDS011;68401;47.192;-1.552;2023-07-31T06:27:14;12.15;;;5.45;;
78995;SDS011;68401;47.192;-1.552;2023-07-31T06:29:40;10.63;;;4.03;;
78995;SDS011;68401;47.192;-1.552;2023-07-31T06:32:06;8.98;;;4.53;;
78995;SDS011;68401;47.192;-1.552;2023-07-31T06:34:32;9.13;;;4.07;;
78995;SDS011;68401;47.192;-1.552;2023-07-31T06:36:57;12.10;;;4.15;;
78995;SDS011;68401;47.192;-1.552;2023-07-31T06:39:23;11.55;;;4.43;;
78995;SDS011;68401;47.192;-1.552;2023-07-31T06:41:48;12.02;;;4.50;;
78995;SDS011;68401;47.192;-1.552;2023-07-31T06:44:14;9.27;;;4.13;;
78995;SDS011;68401;47.192;-1.552;2023-07-31T06:46:39;8.15;;;4.10;;
78995;SDS011;68401;47.192;-1.552;2023-07-31T06:49:05;9.95;;;4.13;;
78995;SDS011;68401;47.192;-1.552;2023-07-31T06:51:30;6.55;;;3.58;;
78995;SDS011;68401;47.192;-1.552;2023-07-31T06:53:58;10.13;;;3.60;;
78995;SDS011;68401;47.192;-1.552;2023-07-31T06:56:24;10.05;;;4.40;;
78995;SDS011;68401;47.192;-1.552;2023-07-31T06:58:51;11.85;;;4.35;;
78995;SDS011;68401;47.192;-1.552;2023-07-31T07:01:16;10.25;;;4.20;;
78995;SDS011;68401;47.192;-1.552;2023-07-31T07:03:41;10.30;;;4.75;;
78995;SDS011;68401;47.192;-1.552;2023-07-31T07:06:07;11.10;;;4.60;;
78995;SDS011;68401;47.192;-1.552;2023-07-31T07:08:32;9.32;;;4.30;;
78995;SDS011;68401;47.192;-1.552;2023-07-31T07:10:58;10.88;;;4.95;;
78995;SDS011;68401;47.192;-1.552;2023-07-31T07:13:23;9.32;;;4.65;;
78995;SDS011;68401;47.192;-1.552;2023-07-31T07:15:49;10.50;;;4.18;;
78995;SDS011;68401;47.192;-1.552;2023-07-31T07:18:15;11.32;;;3.60;;
78995;SDS011;68401;47.192;-1.552;2023-07-31T07:20:50;7.53;;;3.78;;
78995;SDS011;68401;47.192;-1.552;2023-07-31T07:23:17;11.77;;;4.07;;
78995;SDS011;68401;47.192;-1.552;2023-07-31T07:25:42;9.45;;;3.67;;
78995;SDS011;68401;47.192;-1.552;2023-07-31T07:28:08;6.05;;;3.30;;
78995;SDS011;68401;47.192;-1.552;2023-07-31T07:30:34;9.27;;;3.33;;
78995;SDS011;68401;47.192;-1.552;2023-07-31T07:33:00;7.18;;;3.95;;
78995;SDS011;68401;47.192;-1.552;2023-07-31T07:35:25;6.68;;;3.38;;
78995;SDS011;68401;47.192;-1.552;2023-07-31T07:37:51;10.00;;;3.63;;
78995;SDS011;68401;47.192;-1.552;2023-07-31T07:40:16;7.47;;;3.50;;
78995;SDS011;68401;47.192;-1.552;2023-07-31T07:42:42;7.18;;;3.75;;
78995;SDS011;68401;47.192;-1.552;2023-07-31T07:45:07;11.52;;;3.72;;
78995;SDS011;68401;47.192;-1.552;2023-07-31T07:47:33;8.00;;;3.72;;
78995;SDS011;68401;47.192;-1.552;2023-07-31T07:49:58;6.43;;;3.80;;
78995;SDS011;68401;47.192;-1.552;2023-07-31T07:52:24;8.02;;;3.13;;
78995;SDS011;68401;47.192;-1.552;2023-07-31T07:54:50;8.77;;;4.65;;
78995;SDS011;68401;47.192;-1.552;2023-07-31T07:57:15;9.30;;;3.78;;
78995;SDS011;68401;47.192;-1.552;2023-07-31T07:59:41;8.13;;;4.00;;
78995;SDS011;68401;47.192;-1.552;2023-07-31T08:02:07;5.00;;;2.70;;
78995;SDS011;68401;47.192;-1.552;2023-07-31T08:04:32;8.57;;;4.05;;
78995;SDS011;68401;47.192;-1.552;2023-07-31T08:06:57;10.63;;;3.10;;
78995;SDS011;68401;47.192;-1.552;2023-07-31T08:09:23;7.78;;;3.22;;
78995;SDS011;68401;47.192;-1.552;2023-07-31T08:11:48;7.72;;;2.85;;
78995;SDS011;68401;47.192;-1.552;2023-07-31T08:14:14;5.93;;;3.13;;
78995;SDS011;68401;47.192;-1.552;2023-07-31T08:16:39;4.85;;;2.75;;
78995;SDS011;68401;47.192;-1.552;2023-07-31T08:19:05;10.05;;;4.07;;
78995;SDS011;68401;47.192;-1.552;2023-07-31T08:21:31;4.97;;;2.95;;
78995;SDS011;68401;47.192;-1.552;2023-07-31T08:23:56;4.57;;;3.03;;
78995;SDS011;68401;47.192;-1.552;2023-07-31T08:26:22;8.63;;;2.92;;
78995;SDS011;68401;47.192;-1.552;2023-07-31T08:28:47;6.15;;;2.72;;
78995;SDS011;68401;47.192;-1.552;2023-07-31T08:31:13;5.70;;;2.80;;
78995;SDS011;68401;47.192;-1.552;2023-07-31T08:33:39;3.78;;;2.75;;
78995;SDS011;68401;47.192;-1.552;2023-07-31T08:36:05;5.75;;;3.00;;
78995;SDS011;68401;47.192;-1.552;2023-07-31T08:38:31;3.70;;;2.60;;
78995;SDS011;68401;47.192;-1.552;2023-07-31T08:40:57;5.55;;;2.85;;
78995;SDS011;68401;47.192;-1.552;2023-07-31T08:43:25;4.90;;;2.70;;
78995;SDS011;68401;47.192;-1.552;2023-07-31T08:45:51;6.93;;;3.45;;
78995;SDS011;68401;47.192;-1.552;2023-07-31T08:48:17;3.63;;;2.83;;
78995;SDS011;68401;47.192;-1.552;2023-07-31T08:50:43;4.95;;;2.90;;
78995;SDS011;68401;47.192;-1.552;2023-07-31T08:53:08;4.93;;;2.60;;
78995;SDS011;68401;47.192;-1.552;2023-07-31T08:55:34;7.68;;;3.33;;
78995;SDS011;68401;47.192;-1.552;2023-07-31T08:58:02;6.00;;;2.70;;
78995;SDS011;68401;47.192;-1.552;2023-07-31T09:00:28;6.50;;;3.15;;
78995;SDS011;68401;47.192;-1.552;2023-07-31T09:05:53;5.35;;;2.42;;
78995;SDS011;68401;47.192;-1.552;2023-07-31T09:08:21;6.13;;;2.70;;
78995;SDS011;68401;47.192;-1.552;2023-07-31T09:10:47;7.55;;;2.90;;
78995;SDS011;68401;47.192;-1.552;2023-07-31T09:15:41;6.63;;;2.50;;
78995;SDS011;68401;47.192;-1.552;2023-07-31T09:18:09;4.13;;;2.60;;
78995;SDS011;68401;47.192;-1.552;2023-07-31T09:20:35;4.18;;;2.45;;
78995;SDS011;68401;47.192;-1.552;2023-07-31T09:23:11;4.65;;;2.60;;
78995;SDS011;68401;47.192;-1.552;2023-07-31T09:25:38;6.68;;;2.80;;
78995;SDS011;68401;47.192;-1.552;2023-07-31T09:28:07;5.88;;;2.65;;
78995;SDS011;68401;47.192;-1.552;2023-07-31T09:30:45;5.95;;;3.03;;
78995;SDS011;68401;47.192;-1.552;2023-07-31T09:33:12;5.65;;;2.60;;
78995;SDS011;68401;47.192;-1.552;2023-07-31T09:35:38;4.90;;;2.53;;
78995;SDS011;68401;47.192;-1.552;2023-07-31T09:38:06;5.07;;;3.33;;
78995;SDS011;68401;47.192;-1.552;2023-07-31T09:40:33;4.35;;;2.70;;
78995;SDS011;68401;47.192;-1.552;2023-07-31T09:43:01;4.93;;;2.35;;
78995;SDS011;68401;47.192;-1.552;2023-07-31T09:45:34;5.70;;;2.38;;
78995;SDS011;68401;47.192;-1.552;2023-07-31T09:48:01;5.68;;;2.78;;
78995;SDS011;68401;47.192;-1.552;2023-07-31T09:50:28;6.82;;;2.70;;
78995;SDS011;68401;47.192;-1.552;2023-07-31T09:52:54;4.47;;;2.47;;
78995;SDS011;68401;47.192;-1.552;2023-07-31T09:55:20;4.43;;;2.83;;
78995;SDS011;68401;47.192;-1.552;2023-07-31T09:57:47;8.85;;;3.05;;
78995;SDS011;68401;47.192;-1.552;2023-07-31T10:00:14;5.50;;;2.88;;
78995;SDS011;68401;47.192;-1.552;2023-07-31T10:02:41;6.13;;;2.58;;
78995;SDS011;68401;47.192;-1.552;2023-07-31T10:05:10;6.70;;;3.08;;
78995;SDS011;68401;47.192;-1.552;2023-07-31T10:07:38;4.63;;;2.42;;
78995;SDS011;68401;47.192;-1.552;2023-07-31T10:10:07;7.97;;;2.83;;
78995;SDS011;68401;47.192;-1.552;2023-07-31T10:12:36;5.15;;;2.80;;
78995;SDS011;68401;47.192;-1.552;2023-07-31T10:15:02;7.35;;;2.78;;
78995;SDS011;68401;47.192;-1.552;2023-07-31T10:17:29;5.05;;;2.45;;
78995;SDS011;68401;47.192;-1.552;2023-07-31T10:19:56;5.78;;;2.38;;
78995;SDS011;68401;47.192;-1.552;2023-07-31T10:22:24;5.70;;;2.78;;
78995;SDS011;68401;47.192;-1.552;2023-07-31T10:24:50;6.13;;;3.05;;
78995;SDS011;68401;47.192;-1.552;2023-07-31T10:27:15;4.57;;;2.58;;
78995;SDS011;68401;47.192;-1.552;2023-07-31T10:29:41;5.97;;;2.67;;
78995;SDS011;68401;47.192;-1.552;2023-07-31T10:32:09;7.05;;;3.22;;
78995;SDS011;68401;47.192;-1.552;2023-07-31T10:34:36;7.07;;;2.83;;
78995;SDS011;68401;47.192;-1.552;2023-07-31T10:39:55;5.22;;;2.83;;
78995;SDS011;68401;47.192;-1.552;2023-07-31T10:42:56;7.07;;;2.63;;
78995;SDS011;68401;47.192;-1.552;2023-07-31T10:47:50;12.25;;;3.47;;
78995;SDS011;68401;47.192;-1.552;2023-07-31T10:50:24;10.60;;;3.45;;
78995;SDS011;68401;47.192;-1.552;2023-07-31T10:52:51;5.65;;;2.72;;
78995;SDS011;68401;47.192;-1.552;2023-07-31T10:57:50;7.90;;;2.50;;
78995;SDS011;68401;47.192;-1.552;2023-07-31T11:00:20;8.60;;;2.78;;
78995;SDS011;68401;47.192;-1.552;2023-07-31T11:03:08;6.15;;;3.13;;
78995;SDS011;68401;47.192;-1.552;2023-07-31T11:05:41;12.52;;;3.20;;
78995;SDS011;68401;47.192;-1.552;2023-07-31T11:08:11;7.28;;;2.75;;
78995;SDS011;68401;47.192;-1.552;2023-07-31T11:10:37;7.65;;;2.60;;
78995;SDS011;68401;47.192;-1.552;2023-07-31T11:13:03;10.23;;;3.83;;
78995;SDS011;68401;47.192;-1.552;2023-07-31T11:15:29;7.25;;;2.90;;
78995;SDS011;68401;47.192;-1.552;2023-07-31T11:17:55;5.25;;;2.72;;
78995;SDS011;68401;47.192;-1.552;2023-07-31T11:20:23;9.25;;;3.50;;
78995;SDS011;68401;47.192;-1.552;2023-07-31T11:22:49;9.15;;;2.85;;
78995;SDS011;68401;47.192;-1.552;2023-07-31T11:25:15;8.38;;;2.65;;
78995;SDS011;68401;47.192;-1.552;2023-07-31T11:27:41;7.90;;;2.50;;
78995;SDS011;68401;47.192;-1.552;2023-07-31T11:30:08;7.40;;;3.25;;
78995;SDS011;68401;47.192;-1.552;2023-07-31T11:32:36;5.55;;;2.55;;
78995;SDS011;68401;47.192;-1.552;2023-07-31T11:35:02;5.15;;;2.50;;
78995;SDS011;68401;47.192;-1.552;2023-07-31T11:37:39;7.13;;;3.63;;
78995;SDS011;68401;47.192;-1.552;2023-07-31T11:40:07;7.22;;;2.88;;
78995;SDS011;68401;47.192;-1.552;2023-07-31T11:42:34;5.80;;;2.95;;
78995;SDS011;68401;47.192;-1.552;2023-07-31T11:45:04;8.10;;;3.00;;
78995;SDS011;68401;47.192;-1.552;2023-07-31T11:47:30;8.68;;;3.05;;
78995;SDS011;68401;47.192;-1.552;2023-07-31T11:49:59;5.85;;;3.13;;
78995;SDS011;68401;47.192;-1.552;2023-07-31T11:52:25;6.85;;;2.75;;
78995;SDS011;68401;47.192;-1.552;2023-07-31T11:54:51;4.55;;;2.67;;
78995;SDS011;68401;47.192;-1.552;2023-07-31T11:57:16;6.45;;;3.90;;
78995;SDS011;68401;47.192;-1.552;2023-07-31T11:59:44;5.32;;;2.38;;
78995;SDS011;68401;47.192;-1.552;2023-07-31T12:02:09;6.30;;;2.67;;
78995;SDS011;68401;47.192;-1.552;2023-07-31T12:04:35;5.45;;;3.08;;
78995;SDS011;68401;47.192;-1.552;2023-07-31T12:07:00;9.20;;;2.70;;
78995;SDS011;68401;47.192;-1.552;2023-07-31T12:09:26;6.88;;;3.30;;
78995;SDS011;68401;47.192;-1.552;2023-07-31T12:11:51;4.57;;;2.38;;
78995;SDS011;68401;47.192;-1.552;2023-07-31T12:14:35;8.17;;;3.43;;
78995;SDS011;68401;47.192;-1.552;2023-07-31T12:17:04;7.35;;;2.72;;
78995;SDS011;68401;47.192;-1.552;2023-07-31T12:19:30;6.38;;;2.75;;
78995;SDS011;68401;47.192;-1.552;2023-07-31T12:21:59;5.25;;;2.38;;
78995;SDS011;68401;47.192;-1.552;2023-07-31T12:24:28;5.07;;;2.60;;
78995;SDS011;68401;47.192;-1.552;2023-07-31T12:26:53;6.35;;;2.30;;
78995;SDS011;68401;47.192;-1.552;2023-07-31T12:29:19;5.95;;;2.70;;
78995;SDS011;68401;47.192;-1.552;2023-07-31T12:31:45;6.25;;;2.67;;
78995;SDS011;68401;47.192;-1.552;2023-07-31T12:34:15;5.82;;;2.38;;
78995;SDS011;68401;47.192;-1.552;2023-07-31T12:36:42;5.40;;;2.47;;
78995;SDS011;68401;47.192;-1.552;2023-07-31T12:39:08;8.00;;;2.78;;
78995;SDS011;68401;47.192;-1.552;2023-07-31T12:41:33;6.95;;;2.83;;
78995;SDS011;68401;47.192;-1.552;2023-07-31T12:43:58;4.13;;;2.55;;
78995;SDS011;68401;47.192;-1.552;2023-07-31T12:46:24;6.40;;;2.65;;
78995;SDS011;68401;47.192;-1.552;2023-07-31T12:48:49;6.60;;;2.80;;
78995;SDS011;68401;47.192;-1.552;2023-07-31T12:51:15;7.55;;;2.90;;
78995;SDS011;68401;47.192;-1.552;2023-07-31T12:53:40;4.95;;;2.25;;
78995;SDS011;68401;47.192;-1.552;2023-07-31T12:56:06;6.13;;;2.85;;
78995;SDS011;68401;47.192;-1.552;2023-07-31T12:58:31;5.35;;;2.72;;
78995;SDS011;68401;47.192;-1.552;2023-07-31T13:00:57;6.93;;;3.15;;
78995;SDS011;68401;47.192;-1.552;2023-07-31T13:03:22;5.13;;;2.97;;
78995;SDS011;68401;47.192;-1.552;2023-07-31T13:05:48;4.80;;;2.55;;
78995;SDS011;68401;47.192;-1.552;2023-07-31T13:08:13;6.20;;;2.53;;
78995;SDS011;68401;47.192;-1.552;2023-07-31T13:10:41;7.22;;;2.40;;
78995;SDS011;68401;47.192;-1.552;2023-07-31T13:13:06;4.65;;;2.47;;
78995;SDS011;68401;47.192;-1.552;2023-07-31T13:15:32;6.03;;;2.38;;
78995;SDS011;68401;47.192;-1.552;2023-07-31T13:17:57;6.35;;;2.13;;
78995;SDS011;68401;47.192;-1.552;2023-07-31T13:20:23;6.47;;;2.70;;
78995;SDS011;68401;47.192;-1.552;2023-07-31T13:22:48;9.20;;;2.92;;
78995;SDS011;68401;47.192;-1.552;2023-07-31T13:25:14;10.32;;;2.97;;
78995;SDS011;68401;47.192;-1.552;2023-07-31T13:27:39;9.32;;;3.08;;
78995;SDS011;68401;47.192;-1.552;2023-07-31T13:30:05;6.38;;;2.72;;
78995;SDS011;68401;47.192;-1.552;2023-07-31T13:32:31;4.88;;;2.50;;
78995;SDS011;68401;47.192;-1.552;2023-07-31T13:34:57;4.82;;;2.40;;
78995;SDS011;68401;47.192;-1.552;2023-07-31T13:37:22;7.50;;;3.63;;
78995;SDS011;68401;47.192;-1.552;2023-07-31T13:39:48;5.82;;;2.55;;
78995;SDS011;68401;47.192;-1.552;2023-07-31T13:42:14;6.88;;;2.53;;
78995;SDS011;68401;47.192;-1.552;2023-07-31T13:44:39;5.82;;;3.13;;
78995;SDS011;68401;47.192;-1.552;2023-07-31T13:47:05;13.43;;;3.08;;
78995;SDS011;68401;47.192;-1.552;2023-07-31T13:49:32;6.35;;;2.80;;
78995;SDS011;68401;47.192;-1.552;2023-07-31T13:51:57;7.95;;;2.90;;
78995;SDS011;68401;47.192;-1.552;2023-07-31T13:54:23;6.53;;;2.75;;
78995;SDS011;68401;47.192;-1.552;2023-07-31T13:56:49;5.43;;;2.53;;
78995;SDS011;68401;47.192;-1.552;2023-07-31T13:59:15;9.32;;;3.33;;
78995;SDS011;68401;47.192;-1.552;2023-07-31T14:01:41;6.70;;;2.33;;
78995;SDS011;68401;47.192;-1.552;2023-07-31T14:04:07;4.97;;;2.92;;
78995;SDS011;68401;47.192;-1.552;2023-07-31T14:06:33;6.43;;;3.30;;
78995;SDS011;68401;47.192;-1.552;2023-07-31T14:08:58;7.82;;;2.75;;
78995;SDS011;68401;47.192;-1.552;2023-07-31T14:11:24;7.43;;;3.00;;
78995;SDS011;68401;47.192;-1.552;2023-07-31T14:13:50;4.03;;;2.47;;
78995;SDS011;68401;47.192;-1.552;2023-07-31T14:16:16;8.80;;;3.13;;
78995;SDS011;68401;47.192;-1.552;2023-07-31T14:18:42;12.70;;;3.45;;
78995;SDS011;68401;47.192;-1.552;2023-07-31T14:21:08;7.40;;;2.80;;
78995;SDS011;68401;47.192;-1.552;2023-07-31T14:23:33;6.40;;;2.92;;
78995;SDS011;68401;47.192;-1.552;2023-07-31T14:25:59;6.55;;;3.38;;
78995;SDS011;68401;47.192;-1.552;2023-07-31T14:28:24;5.90;;;3.03;;
78995;SDS011;68401;47.192;-1.552;2023-07-31T14:30:50;5.63;;;3.15;;
78995;SDS011;68401;47.192;-1.552;2023-07-31T14:33:15;10.13;;;3.50;;
78995;SDS011;68401;47.192;-1.552;2023-07-31T14:35:41;6.57;;;3.75;;
78995;SDS011;68401;47.192;-1.552;2023-07-31T14:38:06;8.93;;;3.30;;
78995;SDS011;68401;47.192;-1.552;2023-07-31T14:40:31;9.80;;;3.92;;
78995;SDS011;68401;47.192;-1.552;2023-07-31T14:42:57;6.78;;;3.28;;
78995;SDS011;68401;47.192;-1.552;2023-07-31T14:45:22;9.02;;;4.13;;
78995;SDS011;68401;47.192;-1.552;2023-07-31T14:47:48;10.43;;;4.32;;